createdAt,value
2018-04-23T00:00:50.463Z,70.46
2018-04-23T00:03:18.068Z,71.26
2018-04-23T00:05:45.732Z,72.07
2018-04-23T00:08:13.318Z,71.28
2018-04-23T00:10:40.924Z,70.50
2018-04-23T00:13:08.585Z,71.04
2018-04-23T00:15:36.202Z,71.53
2018-04-23T00:18:03.808Z,72.32
2018-04-23T00:20:31.451Z,73.16
2018-04-23T00:22:59.161Z,72.75
2018-04-23T00:25:26.793Z,72.65
2018-04-23T00:27:54.543Z,72.74
2018-04-23T00:30:22.147Z,72.75
2018-04-23T00:32:49.794Z,73.15
2018-04-23T00:35:17.717Z,72.31
2018-04-23T00:37:45.381Z,72.72
2018-04-23T00:40:13.059Z,72.61
2018-04-23T00:42:40.737Z,72.11
2018-04-23T00:45:08.337Z,72.19
2018-04-23T00:47:35.995Z,73.01
2018-04-23T00:50:03.703Z,72.85
2018-04-23T00:52:31.288Z,72.53
2018-04-23T00:54:59.051Z,73.30
2018-04-23T00:57:26.675Z,72.90
2018-04-23T00:59:54.350Z,72.60
2018-04-23T01:02:21.937Z,74.62
2018-04-23T01:04:49.569Z,74.58
2018-04-23T01:07:17.249Z,74.04
2018-04-23T01:09:44.945Z,73.90
2018-04-23T01:12:12.729Z,73.57
2018-04-23T01:14:40.376Z,73.86
2018-04-23T01:17:08.018Z,74.04
2018-04-23T01:19:35.632Z,73.25
2018-04-23T01:22:03.247Z,74.30
2018-04-23T01:24:30.896Z,74.32
2018-04-23T01:26:58.553Z,75.10
2018-04-23T01:29:26.189Z,74.79
2018-04-23T01:31:53.845Z,74.79
2018-04-23T01:34:21.507Z,74.79
2018-04-23T01:36:49.162Z,74.29
2018-04-23T01:39:16.743Z,73.42
2018-04-23T01:41:44.423Z,74.36
2018-04-23T01:44:12.049Z,75.33
2018-04-23T01:46:39.686Z,75.25
2018-04-23T01:49:07.332Z,75.24
2018-04-23T01:51:34.990Z,75.89
2018-04-23T01:54:02.662Z,75.08
2018-04-23T01:56:30.275Z,74.87
2018-04-23T01:58:57.875Z,75.33
2018-04-23T02:01:25.537Z,75.47
2018-04-23T02:03:53.134Z,75.75
2018-04-23T02:06:20.766Z,75.05
2018-04-23T02:08:48.421Z,74.95
2018-04-23T02:11:16.031Z,75.11
2018-04-23T02:13:43.697Z,75.38
2018-04-23T02:16:11.338Z,75.62
2018-04-23T02:18:39.006Z,75.04
2018-04-23T02:21:06.639Z,76.17
2018-04-23T02:23:34.277Z,74.97
2018-04-23T02:26:01.954Z,76.42
2018-04-23T02:28:29.566Z,76.59
2018-04-23T02:30:57.204Z,76.71
2018-04-23T02:33:24.810Z,76.51
2018-04-23T02:35:52.496Z,77.05
2018-04-23T02:38:20.105Z,77.86
2018-04-23T02:40:47.769Z,77.14
2018-04-23T02:43:15.398Z,77.02
2018-04-23T02:45:43.071Z,76.94
2018-04-23T02:48:10.699Z,76.49
2018-04-23T02:50:38.361Z,76.39
2018-04-23T02:53:06.025Z,76.06
2018-04-23T02:55:33.687Z,75.48
2018-04-23T02:58:01.351Z,76.26
2018-04-23T03:00:29.006Z,76.19
2018-04-23T03:02:56.699Z,76.98
2018-04-23T03:05:24.323Z,77.86
2018-04-23T03:07:51.988Z,77.89
2018-04-23T03:10:19.579Z,76.87
2018-04-23T03:12:47.224Z,77.31
2018-04-23T03:15:14.882Z,77.88
2018-04-23T03:17:42.557Z,78.95
2018-04-23T03:20:10.152Z,78.17
2018-04-23T03:22:37.840Z,78.46
2018-04-23T03:25:05.523Z,77.84
2018-04-23T03:27:34.251Z,76.96
2018-04-23T03:30:01.857Z,77.91
2018-04-23T03:32:29.500Z,77.48
2018-04-23T03:34:57.131Z,77.85
2018-04-23T03:37:24.802Z,76.97
2018-04-23T03:39:52.435Z,77.00
2018-04-23T03:42:20.158Z,78.19
2018-04-23T03:44:47.772Z,78.07
2018-04-23T03:47:15.532Z,79.06
2018-04-23T03:49:43.190Z,79.33
2018-04-23T03:52:10.847Z,79.39
2018-04-23T03:54:38.460Z,78.69
2018-04-23T03:57:06.119Z,78.67
2018-04-23T03:59:33.777Z,78.84
2018-04-23T04:02:01.396Z,79.25
2018-04-23T04:04:29.079Z,79.10
2018-04-23T04:06:56.703Z,79.07
2018-04-23T04:09:24.397Z,79.80
2018-04-23T04:11:52.084Z,80.17
2018-04-23T04:14:31.556Z,80.07
2018-04-23T04:16:59.378Z,79.63
2018-04-23T04:19:27.047Z,79.59
2018-04-23T04:21:54.742Z,78.36
2018-04-23T04:24:22.375Z,78.75
2018-04-23T04:26:50.049Z,79.44
2018-04-23T04:29:17.661Z,79.97
2018-04-23T04:31:45.322Z,79.53
2018-04-23T04:34:13.008Z,79.44
2018-04-23T04:36:40.648Z,79.10
2018-04-23T04:39:09.143Z,79.16
2018-04-23T04:41:36.797Z,79.99
2018-04-23T04:44:04.452Z,79.41
2018-04-23T04:46:32.073Z,79.83
2018-04-23T04:48:59.742Z,80.23
2018-04-23T04:51:27.386Z,80.25
2018-04-23T04:53:55.054Z,79.90
2018-04-23T04:56:22.731Z,79.72
2018-04-23T04:58:50.347Z,79.53
2018-04-23T05:01:18.070Z,79.28
2018-04-23T05:03:46.012Z,80.51
2018-04-23T05:06:13.633Z,80.80
2018-04-23T05:08:41.445Z,80.03
2018-04-23T05:11:09.145Z,80.05
2018-04-23T05:13:36.784Z,79.70
2018-04-23T05:16:04.525Z,78.67
2018-04-23T05:18:32.176Z,77.36
2018-04-23T05:20:59.838Z,76.23
2018-04-23T05:23:27.503Z,75.33
2018-04-23T05:25:55.471Z,75.80
2018-04-23T05:28:23.144Z,75.37
2018-04-23T05:30:50.754Z,74.25
2018-04-23T05:33:18.363Z,73.71
2018-04-23T05:35:46.007Z,74.86
2018-04-23T05:38:13.688Z,73.95
2018-04-23T05:40:41.403Z,72.63
2018-04-23T05:43:09.067Z,71.36
2018-04-23T05:45:36.672Z,71.46
2018-04-23T05:48:04.330Z,72.29
2018-04-23T05:50:31.992Z,71.82
2018-04-23T05:52:59.620Z,70.31
2018-04-23T05:55:27.298Z,69.02
2018-04-23T05:57:54.954Z,68.21
2018-04-23T06:00:22.577Z,67.51
2018-04-23T06:02:50.245Z,66.93
2018-04-23T06:05:17.835Z,66.42
2018-04-23T06:07:45.416Z,66.51
2018-04-23T06:10:13.079Z,66.13
2018-04-23T06:12:40.698Z,65.96
2018-04-23T06:15:08.395Z,65.18
2018-04-23T06:17:36.012Z,62.91
2018-04-23T06:20:03.700Z,64.95
2018-04-23T06:22:31.324Z,65.74
2018-04-23T06:24:59.118Z,66.93
2018-04-23T06:27:26.785Z,65.87
2018-04-23T06:29:54.473Z,66.34
2018-04-23T06:32:22.144Z,66.75
2018-04-23T06:34:49.756Z,68.44
2018-04-23T06:37:17.422Z,68.56
2018-04-23T06:39:45.030Z,67.36
2018-04-23T06:42:12.685Z,64.79
2018-04-23T06:44:40.609Z,63.78
2018-04-23T06:47:08.399Z,62.63
2018-04-23T06:49:36.017Z,61.28
2018-04-23T06:52:03.669Z,59.97
2018-04-23T06:54:32.056Z,58.76
2018-04-23T06:56:59.651Z,59.76
2018-04-23T06:59:27.352Z,60.15
2018-04-23T07:01:54.962Z,58.97
2018-04-23T07:04:22.624Z,61.17
2018-04-23T07:06:50.287Z,62.10
2018-04-23T07:09:17.949Z,61.90
2018-04-23T07:11:45.612Z,59.81
2018-04-23T07:14:13.252Z,59.54
2018-04-23T07:16:41.072Z,61.95
2018-04-23T07:19:08.659Z,60.83
2018-04-23T07:21:36.783Z,59.92
2018-04-23T07:24:04.410Z,60.75
2018-04-23T07:26:32.117Z,59.08
2018-04-23T07:28:59.816Z,58.89
2018-04-23T07:31:27.500Z,58.93
2018-04-23T07:33:55.117Z,56.21
2018-04-23T07:36:22.750Z,56.36
2018-04-23T07:38:50.426Z,58.15
2018-04-23T07:41:18.053Z,58.00
2018-04-23T07:43:45.731Z,58.11
2018-04-23T07:46:13.393Z,55.92
2018-04-23T07:48:41.388Z,56.70
2018-04-23T07:51:09.022Z,56.37
2018-04-23T07:53:36.726Z,55.94
2018-04-23T07:56:04.337Z,55.71
2018-04-23T07:58:31.976Z,53.08
2018-04-23T08:00:59.648Z,56.56
2018-04-23T08:03:28.478Z,54.69
2018-04-23T08:05:56.541Z,53.59
2018-04-23T08:08:24.259Z,53.40
2018-04-23T08:10:51.922Z,52.59
2018-04-23T08:13:19.537Z,52.89
2018-04-23T08:15:47.240Z,53.54
2018-04-23T08:18:14.891Z,52.83
2018-04-23T08:20:42.592Z,51.25
2018-04-23T08:23:10.276Z,50.41
2018-04-23T08:25:37.927Z,52.06
2018-04-23T08:28:06.266Z,52.41
2018-04-23T08:30:33.921Z,53.74
2018-04-23T08:33:01.758Z,51.64
2018-04-23T08:35:29.411Z,51.58
2018-04-23T08:37:57.335Z,51.64
2018-04-23T08:40:24.969Z,51.47
2018-04-23T08:42:52.654Z,51.10
2018-04-23T08:45:20.289Z,50.17
2018-04-23T08:47:47.946Z,50.83
2018-04-23T08:50:15.568Z,50.78
2018-04-23T08:52:43.287Z,47.56
2018-04-23T08:55:10.993Z,49.56
2018-04-23T08:57:38.691Z,49.66
2018-04-23T09:00:06.370Z,48.51
2018-04-23T09:02:34.044Z,48.26
2018-04-23T09:05:01.681Z,48.73
2018-04-23T09:07:29.341Z,47.50
2018-04-23T09:09:57.024Z,47.31
2018-04-23T09:12:24.704Z,45.64
2018-04-23T09:14:52.399Z,48.21
2018-04-23T09:17:20.049Z,45.83
2018-04-23T09:19:48.412Z,45.82
2018-04-23T09:22:16.109Z,45.06
2018-04-23T09:24:43.826Z,43.52
2018-04-23T09:27:11.488Z,44.04
2018-04-23T09:29:39.119Z,44.99
2018-04-23T09:32:06.812Z,44.34
2018-04-23T09:34:35.370Z,44.33
2018-04-23T09:37:03.008Z,43.49
2018-04-23T09:39:30.592Z,42.17
2018-04-23T09:41:58.253Z,43.14
2018-04-23T09:44:26.010Z,42.57
2018-04-23T09:46:53.613Z,41.94
2018-04-23T09:49:21.268Z,40.28
2018-04-23T09:51:48.884Z,41.40
2018-04-23T09:54:16.514Z,39.75
2018-04-23T09:56:44.177Z,39.33
2018-04-23T09:59:11.845Z,38.48
2018-04-23T10:01:45.119Z,37.55
2018-04-23T10:04:12.842Z,35.83
2018-04-23T10:06:40.488Z,37.65
2018-04-23T10:09:08.143Z,34.71
2018-04-23T10:11:35.819Z,36.12
2018-04-23T10:14:03.481Z,35.50
2018-04-23T10:16:31.189Z,31.20
2018-04-23T10:18:58.899Z,31.15
2018-04-23T10:21:26.954Z,30.29
2018-04-23T10:23:54.595Z,30.79
2018-04-23T10:26:22.301Z,31.17
2018-04-23T10:28:49.921Z,31.49
2018-04-23T10:31:17.534Z,29.81
2018-04-23T10:33:45.176Z,30.99
2018-04-23T10:36:12.935Z,29.79
2018-04-23T10:38:40.630Z,30.25
2018-04-23T10:41:08.254Z,29.69
2018-04-23T10:43:35.907Z,29.64
2018-04-23T10:46:03.566Z,29.57
2018-04-23T10:48:31.183Z,31.07
2018-04-23T10:50:58.848Z,30.56
2018-04-23T10:53:26.467Z,30.33
2018-04-23T10:55:54.149Z,30.74
2018-04-23T10:58:21.775Z,32.16
2018-04-23T11:00:49.436Z,31.75
2018-04-23T11:03:17.032Z,32.45
2018-04-23T11:05:44.697Z,31.44
2018-04-23T11:08:12.324Z,32.19
2018-04-23T11:10:39.965Z,33.08
2018-04-23T11:13:07.595Z,30.93
2018-04-23T11:15:35.255Z,29.82
2018-04-23T11:18:02.910Z,31.05
2018-04-23T11:20:30.543Z,31.62
2018-04-23T11:22:58.226Z,31.51
2018-04-23T11:25:25.855Z,31.50
2018-04-23T11:27:53.583Z,31.64
2018-04-23T11:30:22.205Z,32.11
2018-04-23T11:32:49.868Z,31.09
2018-04-23T11:35:17.490Z,31.56
2018-04-23T11:37:45.156Z,32.82
2018-04-23T11:40:12.809Z,31.06
2018-04-23T11:42:40.469Z,29.64
2018-04-23T11:45:08.152Z,31.22
2018-04-23T11:47:35.847Z,30.63
2018-04-23T11:50:03.499Z,31.30
2018-04-23T11:52:31.219Z,30.88
2018-04-23T11:54:58.840Z,29.37
2018-04-23T11:57:26.555Z,29.88
2018-04-23T11:59:54.497Z,30.99
2018-04-23T12:02:22.133Z,31.07
2018-04-23T12:04:49.799Z,31.29
2018-04-23T12:07:17.507Z,32.00
2018-04-23T12:09:45.199Z,31.68
2018-04-23T12:12:12.806Z,30.89
2018-04-23T12:14:40.498Z,30.67
2018-04-23T12:17:08.168Z,31.04
2018-04-23T12:19:35.829Z,31.90
2018-04-23T12:22:03.561Z,31.83
2018-04-23T12:24:31.265Z,31.25
2018-04-23T12:26:58.875Z,31.41
2018-04-23T12:29:26.612Z,31.83
2018-04-23T12:31:54.310Z,30.98
2018-04-23T12:34:22.732Z,31.21
2018-04-23T12:36:50.366Z,30.63
2018-04-23T12:39:19.016Z,29.99
2018-04-23T12:41:46.629Z,29.91
2018-04-23T12:44:15.219Z,29.75
2018-04-23T12:46:43.290Z,30.14
2018-04-23T12:49:10.998Z,29.10
2018-04-23T12:51:38.665Z,29.42
2018-04-23T12:54:06.364Z,29.49
2018-04-23T12:56:34.188Z,29.11
2018-04-23T12:59:01.829Z,29.43
2018-04-23T13:01:30.829Z,28.75
2018-04-23T13:03:58.573Z,28.24
2018-04-23T13:06:26.606Z,27.49
2018-04-23T13:08:55.536Z,28.45
2018-04-23T13:11:23.240Z,26.12
2018-04-23T13:13:50.878Z,27.92
2018-04-23T13:16:19.219Z,27.69
2018-04-23T13:18:46.976Z,26.89
2018-04-23T13:21:14.760Z,26.71
2018-04-23T13:23:42.442Z,25.83
2018-04-23T13:26:10.134Z,24.41
2018-04-23T13:28:37.825Z,25.96
2018-04-23T13:31:06.290Z,26.82
2018-04-23T13:33:33.967Z,27.82
2018-04-23T13:36:01.767Z,27.66
2018-04-23T13:38:29.434Z,27.12
2018-04-23T13:40:57.151Z,28.07
2018-04-23T13:43:25.385Z,27.75
2018-04-23T13:45:52.979Z,27.90
2018-04-23T13:48:20.702Z,26.87
2018-04-23T13:50:48.379Z,26.04
2018-04-23T13:53:16.050Z,26.85
2018-04-23T13:55:43.689Z,26.41
2018-04-23T13:58:11.369Z,25.83
2018-04-23T14:00:39.045Z,28.83
2018-04-23T14:03:06.786Z,28.29
2018-04-23T14:05:34.508Z,27.82
2018-04-23T14:08:02.159Z,27.96
2018-04-23T14:10:29.855Z,27.44
2018-04-23T14:12:57.517Z,28.10
2018-04-23T14:15:25.219Z,28.50
2018-04-23T14:17:52.856Z,28.12
2018-04-23T14:20:20.509Z,29.44
2018-04-23T14:22:48.183Z,28.63
2018-04-23T14:25:15.825Z,28.94
2018-04-23T14:27:43.498Z,28.80
2018-04-23T14:30:11.174Z,26.94
2018-04-23T14:32:38.869Z,27.33
2018-04-23T14:35:06.556Z,27.39
2018-04-23T14:37:34.232Z,26.82
2018-04-23T14:40:01.843Z,26.87
2018-04-23T14:42:29.500Z,27.56
2018-04-23T14:44:57.120Z,27.86
2018-04-23T14:47:24.712Z,28.52
2018-04-23T14:49:52.367Z,28.85
2018-04-23T14:52:20.005Z,28.08
2018-04-23T14:54:47.602Z,28.77
2018-04-23T14:57:15.288Z,28.31
2018-04-23T14:59:42.897Z,29.24
2018-04-23T15:02:10.676Z,29.06
2018-04-23T15:04:38.304Z,29.60
2018-04-23T15:07:07.227Z,28.90
2018-04-23T15:09:34.943Z,28.31
2018-04-23T15:12:02.655Z,28.46
2018-04-23T15:14:30.285Z,27.84
2018-04-23T15:16:57.932Z,29.19
2018-04-23T15:19:26.729Z,29.24
2018-04-23T15:21:54.414Z,29.44
2018-04-23T15:24:22.111Z,30.77
2018-04-23T15:26:49.864Z,29.72
2018-04-23T15:29:17.585Z,29.51
2018-04-23T15:31:45.249Z,31.10
2018-04-23T15:34:12.950Z,29.53
2018-04-23T15:36:40.601Z,27.57
2018-04-23T15:39:08.338Z,27.97
2018-04-23T15:41:35.956Z,27.78
2018-04-23T15:44:03.728Z,31.52
2018-04-23T15:46:31.376Z,29.56
2018-04-23T15:48:59.027Z,28.17
2018-04-23T15:51:26.797Z,27.32
2018-04-23T15:53:54.459Z,29.57
2018-04-23T15:56:22.142Z,29.24
2018-04-23T15:58:49.850Z,31.51
2018-04-23T16:01:17.560Z,31.31
2018-04-23T16:03:45.260Z,31.98
2018-04-23T16:06:12.911Z,33.83
2018-04-23T16:08:40.637Z,33.11
2018-04-23T16:11:08.354Z,33.75
2018-04-23T16:13:35.983Z,34.11
2018-04-23T16:16:03.656Z,35.36
2018-04-23T16:18:31.342Z,35.73
2018-04-23T16:20:58.975Z,35.86
2018-04-23T16:23:26.896Z,34.88
2018-04-23T16:25:54.538Z,33.75
2018-04-23T16:28:22.225Z,33.40
2018-04-23T16:30:49.837Z,34.41
2018-04-23T16:33:17.509Z,34.50
2018-04-23T16:35:45.591Z,33.01
2018-04-23T16:38:14.498Z,33.84
2018-04-23T16:40:42.108Z,32.82
2018-04-23T16:43:09.781Z,32.85
2018-04-23T16:45:38.873Z,33.98
2018-04-23T16:48:07.636Z,33.95
2018-04-23T16:50:35.459Z,35.24
2018-04-23T16:53:03.180Z,37.17
2018-04-23T16:55:30.824Z,37.10
2018-04-23T16:57:58.652Z,37.42
2018-04-23T17:00:26.331Z,37.45
2018-04-23T17:02:53.973Z,36.78
2018-04-23T17:05:21.825Z,37.73
2018-04-23T17:07:49.515Z,38.40
2018-04-23T17:10:17.216Z,38.76
2018-04-23T17:12:44.964Z,39.37
2018-04-23T17:15:12.664Z,40.58
2018-04-23T17:17:40.300Z,39.84
2018-04-23T17:20:08.988Z,40.31
2018-04-23T17:22:36.693Z,38.71
2018-04-23T17:25:04.456Z,38.66
2018-04-23T17:27:32.132Z,38.28
2018-04-23T17:30:00.042Z,37.24
2018-04-23T17:32:27.668Z,38.34
2018-04-23T17:34:55.452Z,39.02
2018-04-23T17:37:23.149Z,38.67
2018-04-23T17:39:50.856Z,38.72
2018-04-23T17:42:18.561Z,38.55
2018-04-23T17:44:46.246Z,39.38
2018-04-23T17:47:14.094Z,38.60
2018-04-23T17:49:41.831Z,39.44
2018-04-23T17:52:09.486Z,39.22
2018-04-23T17:54:37.176Z,39.40
2018-04-23T17:57:04.901Z,38.34
2018-04-23T17:59:32.634Z,39.91
2018-04-23T18:02:00.358Z,38.86
2018-04-23T18:04:28.331Z,39.90
2018-04-23T18:06:56.026Z,39.85
2018-04-23T18:09:23.727Z,40.44
2018-04-23T18:11:51.800Z,40.11
2018-04-23T18:14:19.566Z,40.42
2018-04-23T18:16:47.271Z,41.69
2018-04-23T18:19:14.986Z,42.33
2018-04-23T18:21:42.646Z,45.20
2018-04-23T18:24:10.362Z,47.54
2018-04-23T18:26:38.000Z,47.77
2018-04-23T18:29:05.679Z,47.82
2018-04-23T18:31:33.456Z,48.29
2018-04-23T18:34:01.193Z,47.92
2018-04-23T18:36:29.966Z,48.72
2018-04-23T18:38:57.594Z,49.26
2018-04-23T18:41:25.298Z,49.98
2018-04-23T18:43:53.021Z,50.81
2018-04-23T18:46:20.648Z,51.90
2018-04-23T18:48:48.337Z,52.21
2018-04-23T18:51:15.997Z,54.12
2018-04-23T18:53:43.695Z,52.30
2018-04-23T18:56:11.403Z,53.50
2018-04-23T18:58:39.063Z,53.09
2018-04-23T19:01:06.705Z,54.01
2018-04-23T19:03:34.348Z,53.83
2018-04-23T19:06:01.958Z,52.95
2018-04-23T19:08:29.628Z,55.57
2018-04-23T19:10:57.369Z,56.16
2018-04-23T19:13:24.949Z,57.15
2018-04-23T19:15:52.574Z,56.98
2018-04-23T19:18:20.960Z,57.77
2018-04-23T19:20:48.698Z,57.68
2018-04-23T19:23:17.473Z,59.22
2018-04-23T19:25:45.142Z,58.57
2018-04-23T19:28:13.050Z,57.78
2018-04-23T19:30:40.884Z,58.01
2018-04-23T19:33:08.598Z,58.19
2018-04-23T19:35:36.272Z,57.99
2018-04-23T19:38:03.958Z,58.82
2018-04-23T19:40:31.762Z,58.87
2018-04-23T19:42:59.450Z,59.79
2018-04-23T19:45:27.281Z,58.78
2018-04-23T19:47:55.232Z,58.78
2018-04-23T19:50:22.912Z,59.32
2018-04-23T19:52:51.612Z,59.87
2018-04-23T19:55:19.788Z,60.34
2018-04-23T19:57:47.543Z,61.63
2018-04-23T20:00:16.992Z,60.31
2018-04-23T20:02:45.128Z,60.50
2018-04-23T20:05:13.815Z,60.65
2018-04-23T20:07:41.580Z,63.31
2018-04-23T20:10:09.491Z,65.72
2018-04-23T20:12:37.309Z,65.10
2018-04-23T20:15:05.075Z,64.36
2018-04-23T20:17:32.786Z,63.94
2018-04-23T20:20:00.444Z,64.31
2018-04-23T20:22:28.130Z,63.43
2018-04-23T20:24:55.832Z,64.18
2018-04-23T20:27:25.651Z,64.17
2018-04-23T20:29:53.345Z,65.33
2018-04-23T20:32:21.101Z,64.71
2018-04-23T20:34:48.794Z,66.99
2018-04-23T20:37:17.009Z,67.45
2018-04-23T20:39:45.128Z,67.53
2018-04-23T20:42:12.852Z,66.43
2018-04-23T20:44:40.584Z,66.33
2018-04-23T20:47:08.278Z,67.08
2018-04-23T20:49:36.216Z,69.83
2018-04-23T20:52:03.936Z,66.40
2018-04-23T20:54:31.567Z,68.19
2018-04-23T20:56:59.348Z,70.22
2018-04-23T20:59:26.981Z,71.01
2018-04-23T21:01:54.877Z,71.71
2018-04-23T21:04:22.523Z,72.47
2018-04-23T21:06:50.173Z,70.08
2018-04-23T21:09:17.830Z,74.32
2018-04-23T21:11:45.436Z,75.87
2018-04-23T21:14:13.104Z,77.89
2018-04-23T21:16:40.816Z,76.40
2018-04-23T21:19:08.460Z,73.62
2018-04-23T21:21:36.091Z,77.50
2018-04-23T21:24:03.812Z,77.07
2018-04-23T21:26:31.413Z,78.58
2018-04-23T21:28:59.078Z,77.08
2018-04-23T21:31:26.679Z,76.50
2018-04-23T21:33:54.357Z,77.52
2018-04-23T21:36:22.109Z,76.36
2018-04-23T21:38:49.790Z,77.57
2018-04-23T21:41:17.441Z,77.25
2018-04-23T21:43:45.131Z,78.35
2018-04-23T21:46:13.555Z,77.38
2018-04-23T21:48:41.281Z,77.83
2018-04-23T21:51:08.911Z,77.26
2018-04-23T21:53:36.563Z,76.88
2018-04-23T21:56:04.947Z,76.64
2018-04-23T21:58:32.683Z,76.36
2018-04-23T22:01:00.575Z,77.84
2018-04-23T22:03:28.240Z,77.53
2018-04-23T22:05:55.912Z,78.28
2018-04-23T22:08:23.553Z,77.61
2018-04-23T22:10:51.243Z,78.96
2018-04-23T22:13:18.836Z,78.72
2018-04-23T22:15:46.479Z,78.49
2018-04-23T22:18:14.166Z,79.08
2018-04-23T22:20:41.798Z,79.42
2018-04-23T22:23:09.463Z,79.41
2018-04-23T22:25:37.078Z,81.40
2018-04-23T22:28:04.780Z,82.39
2018-04-23T22:30:32.440Z,82.10
2018-04-23T22:33:00.022Z,81.23
2018-04-23T22:35:27.684Z,82.50
2018-04-23T22:37:55.409Z,82.40
2018-04-23T22:40:23.046Z,81.69
2018-04-23T22:42:50.704Z,81.44
2018-04-23T22:45:18.358Z,81.34
2018-04-23T22:47:47.152Z,81.46
2018-04-23T22:50:16.077Z,81.89
2018-04-23T22:52:43.852Z,81.76
2018-04-23T22:55:11.504Z,82.20
2018-04-23T22:57:39.110Z,81.82
2018-04-23T23:00:06.762Z,80.61
2018-04-23T23:02:34.372Z,80.85
2018-04-23T23:05:01.982Z,80.85
2018-04-23T23:07:29.613Z,80.84
2018-04-23T23:09:57.247Z,82.20
2018-04-23T23:12:24.921Z,82.16
2018-04-23T23:14:52.564Z,81.59
2018-04-23T23:17:20.231Z,81.87
2018-04-23T23:19:47.876Z,82.62
2018-04-23T23:22:15.451Z,81.85
2018-04-23T23:24:43.145Z,82.17
2018-04-23T23:27:10.806Z,82.49
2018-04-23T23:29:38.395Z,82.59
2018-04-23T23:32:06.665Z,81.74
2018-04-23T23:34:34.314Z,83.60
2018-04-23T23:37:01.889Z,84.28
2018-04-23T23:39:29.547Z,85.98
2018-04-23T23:41:57.599Z,85.61
2018-04-23T23:44:25.309Z,85.34
2018-04-23T23:46:52.904Z,85.33
2018-04-23T23:49:20.540Z,85.20
2018-04-23T23:51:48.175Z,84.01
2018-04-23T23:54:15.803Z,84.03
2018-04-23T23:56:43.483Z,83.65
2018-04-23T23:59:11.140Z,84.26
